Time;durP1;ratioP1;P1;durP2;ratioP2;P2;SDS_P1;SDS_P2;PMS_P1;PMS_P2;Temp;Humidity;BMP_temperature;BMP_pressure;BME280_temperature;BME280_humidity;BME280_pressure;Samples;Min_cycle;Max_cycle;Signal;HPM_P1;HPM_P2
2022/07/18 00:01:28;;;;;;;4.05;2.72;;;;;;;;;;7377860;19;20113;-69
2022/07/18 00:03:53;;;;;;;3.10;2.63;;;;;;;;;;7374079;19;20615;-70
2022/07/18 00:06:18;;;;;;;5.90;3.03;;;;;;;;;;7380614;19;20105;-70
2022/07/18 00:08:44;;;;;;;3.78;2.70;;;;;;;;;;7371888;19;20500;-70
2022/07/18 00:11:10;;;;;;;5.75;2.92;;;;;;;;;;7370530;19;20124;-70
2022/07/18 00:13:35;;;;;;;2.97;2.65;;;;;;;;;;7375707;19;20113;-70
2022/07/18 00:16:00;;;;;;;3.20;2.90;;;;;;;;;;7377162;19;20125;-69
2022/07/18 00:18:26;;;;;;;3.85;2.70;;;;;;;;;;7380567;19;20157;-70
2022/07/18 00:20:51;;;;;;;3.05;2.75;;;;;;;;;;7377202;19;20134;-69
2022/07/18 00:23:16;;;;;;;3.20;2.90;;;;;;;;;;7380058;19;20424;-70
2022/07/18 00:25:42;;;;;;;3.47;2.60;;;;;;;;;;7383509;19;20101;-70
2022/07/18 00:28:07;;;;;;;6.47;2.80;;;;;;;;;;7391898;19;20121;-70
2022/07/18 00:30:32;;;;;;;4.28;2.78;;;;;;;;;;7386865;19;20432;-70
2022/07/18 00:32:58;;;;;;;3.88;2.95;;;;;;;;;;7392110;19;20128;-69
2022/07/18 00:35:23;;;;;;;4.00;2.92;;;;;;;;;;7388171;19;20618;-69
2022/07/18 00:37:48;;;;;;;3.53;3.22;;;;;;;;;;7382872;19;20119;-69
2022/07/18 00:40:14;;;;;;;2.85;2.58;;;;;;;;;;7384719;19;20113;-70
2022/07/18 00:42:39;;;;;;;4.27;2.87;;;;;;;;;;7382881;19;20595;-70
2022/07/18 00:45:05;;;;;;;3.13;2.83;;;;;;;;;;7382898;19;20113;-70
2022/07/18 00:47:30;;;;;;;3.80;2.73;;;;;;;;;;7383033;19;20133;-70
2022/07/18 00:49:56;;;;;;;3.57;3.00;;;;;;;;;;7373760;19;20105;-70
2022/07/18 00:52:21;;;;;;;17.73;3.20;;;;;;;;;;7377633;19;20156;-70
2022/07/18 00:54:46;;;;;;;4.38;3.10;;;;;;;;;;7375495;19;20104;-70
2022/07/18 00:57:12;;;;;;;6.43;2.80;;;;;;;;;;7375491;19;20180;-70
2022/07/18 01:02:22;;;;;;;3.33;2.73;;;;;;;;;;7379495;19;20567;-70
2022/07/18 01:04:48;;;;;;;3.20;2.63;;;;;;;;;;7387049;19;20149;-70
2022/07/18 01:07:13;;;;;;;3.23;2.93;;;;;;;;;;7383597;19;20185;-70
2022/07/18 01:09:38;;;;;;;3.20;2.90;;;;;;;;;;7382832;19;20504;-70
2022/07/18 01:12:05;;;;;;;3.10;2.80;;;;;;;;;;7383918;19;20117;-70
2022/07/18 01:14:31;;;;;;;3.10;2.50;;;;;;;;;;7380054;19;20591;-70
2022/07/18 01:16:56;;;;;;;3.27;2.70;;;;;;;;;;7384545;19;20128;-69
2022/07/18 01:19:22;;;;;;;3.90;3.00;;;;;;;;;;7381837;19;20134;-69
2022/07/18 01:21:47;;;;;;;4.27;2.47;;;;;;;;;;7383579;19;20129;-69
2022/07/18 01:24:12;;;;;;;3.17;2.63;;;;;;;;;;7386563;19;20094;-69
2022/07/18 01:26:38;;;;;;;4.03;2.70;;;;;;;;;;7384961;19;20101;-69
2022/07/18 01:29:03;;;;;;;3.33;2.80;;;;;;;;;;7385085;19;20105;-69
2022/07/18 01:31:33;;;;;;;2.97;2.67;;;;;;;;;;7381053;19;20563;-70
2022/07/18 01:33:58;;;;;;;2.90;2.50;;;;;;;;;;7384000;19;20454;-69
2022/07/18 01:36:23;;;;;;;2.53;2.33;;;;;;;;;;7386426;19;20137;-69
2022/07/18 01:38:49;;;;;;;2.90;2.60;;;;;;;;;;7387301;19;20105;-69
2022/07/18 01:41:14;;;;;;;3.03;2.80;;;;;;;;;;7385022;19;20596;-69
2022/07/18 01:43:41;;;;;;;3.10;2.90;;;;;;;;;;7381733;19;20117;-70
2022/07/18 01:46:08;;;;;;;3.00;2.57;;;;;;;;;;7385768;19;20674;-70
2022/07/18 01:48:36;;;;;;;3.73;2.77;;;;;;;;;;7379968;19;20101;-69
2022/07/18 01:51:02;;;;;;;3.63;2.50;;;;;;;;;;7384323;19;20130;-69
2022/07/18 01:53:27;;;;;;;3.70;2.83;;;;;;;;;;7380078;19;20110;-70
2022/07/18 01:55:53;;;;;;;3.83;2.97;;;;;;;;;;7385670;19;20489;-69
2022/07/18 01:58:18;;;;;;;2.90;2.70;;;;;;;;;;7381537;19;20112;-69
2022/07/18 02:00:43;;;;;;;2.67;2.47;;;;;;;;;;7382371;19;20117;-69
2022/07/18 02:03:09;;;;;;;3.13;2.60;;;;;;;;;;7382196;19;20101;-69
2022/07/18 02:05:34;;;;;;;3.97;2.70;;;;;;;;;;7384320;19;20121;-70
2022/07/18 02:07:59;;;;;;;3.23;2.60;;;;;;;;;;7384566;19;20118;-69
2022/07/18 02:10:25;;;;;;;3.00;2.20;;;;;;;;;;7386924;19;20206;-69
2022/07/18 02:12:50;;;;;;;3.33;2.70;;;;;;;;;;7388659;19;20120;-69
2022/07/18 02:15:16;;;;;;;5.07;2.87;;;;;;;;;;7387895;19;20109;-69
2022/07/18 02:17:43;;;;;;;5.27;2.97;;;;;;;;;;7387241;19;20120;-69
2022/07/18 02:20:11;;;;;;;3.20;2.53;;;;;;;;;;7378910;19;20192;-69
2022/07/18 02:22:37;;;;;;;3.47;2.87;;;;;;;;;;7376603;19;20141;-69
2022/07/18 02:25:03;;;;;;;2.93;2.63;;;;;;;;;;7386299;19;20252;-70
2022/07/18 02:27:29;;;;;;;3.10;2.80;;;;;;;;;;7381763;19;20136;-69
2022/07/18 02:29:54;;;;;;;3.33;2.60;;;;;;;;;;7377728;19;20108;-69
2022/07/18 02:32:20;;;;;;;3.23;2.70;;;;;;;;;;7378738;19;20627;-69
2022/07/18 02:34:46;;;;;;;4.70;2.87;;;;;;;;;;7382459;19;20101;-70
2022/07/18 02:37:12;;;;;;;3.17;2.80;;;;;;;;;;7379130;19;20101;-69
2022/07/18 02:39:37;;;;;;;3.33;3.00;;;;;;;;;;7384240;19;20118;-70
2022/07/18 02:42:03;;;;;;;6.73;2.93;;;;;;;;;;7381855;19;20129;-69
2022/07/18 02:44:29;;;;;;;3.30;3.00;;;;;;;;;;7375233;19;20134;-69
2022/07/18 02:46:54;;;;;;;4.33;2.90;;;;;;;;;;7382214;19;20690;-69
2022/07/18 02:49:28;;;;;;;4.43;3.20;;;;;;;;;;7376066;19;20124;-69
2022/07/18 02:51:59;;;;;;;4.07;2.87;;;;;;;;;;7377001;19;20173;-69
2022/07/18 02:54:25;;;;;;;3.13;2.83;;;;;;;;;;7378032;19;20138;-69
2022/07/18 02:56:51;;;;;;;4.20;2.97;;;;;;;;;;7384241;19;20995;-69
2022/07/18 02:59:16;;;;;;;3.40;3.00;;;;;;;;;;7378185;19;20126;-69
2022/07/18 03:01:42;;;;;;;4.47;3.23;;;;;;;;;;7375473;19;20555;-69
2022/07/18 03:04:07;;;;;;;3.37;2.90;;;;;;;;;;7379143;19;20437;-69
2022/07/18 03:06:33;;;;;;;5.73;3.40;;;;;;;;;;7381298;19;20124;-70
2022/07/18 03:08:58;;;;;;;5.47;2.77;;;;;;;;;;7377237;19;20105;-69
2022/07/18 03:11:23;;;;;;;4.67;3.00;;;;;;;;;;7379590;19;20477;-69
2022/07/18 03:13:49;;;;;;;4.43;3.53;;;;;;;;;;7374578;19;20116;-69
2022/07/18 03:16:14;;;;;;;5.23;3.23;;;;;;;;;;7377161;19;20218;-69
2022/07/18 03:18:39;;;;;;;3.40;3.10;;;;;;;;;;7380963;19;20570;-69
2022/07/18 03:21:04;;;;;;;3.67;3.33;;;;;;;;;;7373599;19;20120;-69
2022/07/18 03:23:30;;;;;;;3.97;3.30;;;;;;;;;;7380631;19;20144;-69
2022/07/18 03:25:55;;;;;;;4.33;3.30;;;;;;;;;;7377627;19;21102;-70
2022/07/18 03:28:20;;;;;;;4.70;2.97;;;;;;;;;;7379929;19;20089;-69
2022/07/18 03:30:46;;;;;;;3.50;3.20;;;;;;;;;;7379154;19;20121;-69
2022/07/18 03:33:11;;;;;;;3.40;3.10;;;;;;;;;;7380702;19;20105;-69
2022/07/18 03:35:36;;;;;;;3.93;3.03;;;;;;;;;;7381953;19;20112;-69
2022/07/18 03:38:02;;;;;;;4.77;2.83;;;;;;;;;;7383035;19;20098;-69
2022/07/18 03:40:27;;;;;;;3.97;3.47;;;;;;;;;;7378580;19;20135;-69
2022/07/18 03:42:53;;;;;;;3.37;3.07;;;;;;;;;;7381268;19;20139;-69
2022/07/18 03:45:19;;;;;;;4.27;2.90;;;;;;;;;;7374765;19;20105;-69
2022/07/18 03:47:44;;;;;;;3.83;3.00;;;;;;;;;;7378030;19;20105;-69
2022/07/18 03:50:09;;;;;;;3.37;3.10;;;;;;;;;;7377473;19;20169;-69
2022/07/18 03:52:35;;;;;;;3.20;2.83;;;;;;;;;;7378557;19;20120;-69
2022/07/18 03:55:01;;;;;;;4.17;3.07;;;;;;;;;;7382181;19;20109;-70
2022/07/18 03:57:27;;;;;;;4.07;3.00;;;;;;;;;;7377422;19;20125;-69
2022/07/18 03:59:52;;;;;;;4.40;3.60;;;;;;;;;;7383010;19;20567;-69
2022/07/18 04:02:17;;;;;;;3.93;3.30;;;;;;;;;;7376177;19;20488;-69
2022/07/18 04:04:43;;;;;;;3.60;3.03;;;;;;;;;;7375997;19;20746;-69
2022/07/18 04:07:08;;;;;;;3.67;2.80;;;;;;;;;;7380794;19;20109;-69
2022/07/18 04:09:33;;;;;;;5.67;3.33;;;;;;;;;;7378717;19;20116;-69
2022/07/18 04:11:59;;;;;;;7.20;3.10;;;;;;;;;;7377173;19;20591;-69
2022/07/18 04:14:24;;;;;;;3.17;2.87;;;;;;;;;;7374349;19;20142;-69
2022/07/18 04:16:49;;;;;;;3.57;3.20;;;;;;;;;;7383907;19;20136;-69
2022/07/18 04:19:16;;;;;;;3.40;3.10;;;;;;;;;;7385648;19;20129;-69
2022/07/18 04:21:42;;;;;;;5.20;3.00;;;;;;;;;;7381917;19;20125;-69
2022/07/18 04:24:07;;;;;;;3.50;3.20;;;;;;;;;;7383690;19;20607;-69
2022/07/18 04:26:32;;;;;;;6.83;3.27;;;;;;;;;;7384697;19;20560;-69
2022/07/18 04:28:57;;;;;;;4.97;3.17;;;;;;;;;;7383752;19;20101;-69
2022/07/18 04:31:23;;;;;;;4.83;3.40;;;;;;;;;;7382747;19;20121;-69
2022/07/18 04:33:48;;;;;;;4.33;3.30;;;;;;;;;;7383844;19;20710;-69
2022/07/18 04:36:13;;;;;;;3.47;3.03;;;;;;;;;;7382158;19;20140;-69
2022/07/18 04:38:39;;;;;;;3.10;2.80;;;;;;;;;;7386290;19;20456;-69
2022/07/18 04:41:05;;;;;;;3.03;2.83;;;;;;;;;;7384842;19;20140;-69
2022/07/18 04:43:31;;;;;;;5.20;3.10;;;;;;;;;;7383933;19;20530;-69
2022/07/18 04:45:56;;;;;;;3.50;3.20;;;;;;;;;;7383288;19;20098;-69
2022/07/18 04:48:21;;;;;;;4.63;3.00;;;;;;;;;;7383999;19;20102;-69
2022/07/18 04:50:47;;;;;;;3.40;3.10;;;;;;;;;;7384286;19;20575;-69
2022/07/18 04:53:12;;;;;;;3.30;3.00;;;;;;;;;;7385907;19;20114;-70
2022/07/18 04:55:37;;;;;;;3.97;2.83;;;;;;;;;;7385239;19;20589;-69
2022/07/18 04:58:03;;;;;;;3.80;3.43;;;;;;;;;;7385031;19;20517;-69
2022/07/18 05:00:28;;;;;;;4.57;4.17;;;;;;;;;;7381905;19;20108;-69
2022/07/18 05:02:56;;;;;;;4.43;3.93;;;;;;;;;;7384299;19;20102;-69
2022/07/18 05:05:23;;;;;;;5.47;4.03;;;;;;;;;;7380760;19;20128;-69
2022/07/18 05:07:49;;;;;;;5.13;3.90;;;;;;;;;;7382387;19;20106;-69
2022/07/18 05:10:16;;;;;;;4.07;3.77;;;;;;;;;;7387087;19;20157;-69
2022/07/18 05:12:50;;;;;;;5.33;3.80;;;;;;;;;;7385216;19;20105;-69
2022/07/18 05:15:17;;;;;;;5.63;4.00;;;;;;;;;;7387128;19;20101;-69
2022/07/18 05:17:43;;;;;;;4.60;4.13;;;;;;;;;;7385036;19;20179;-69
2022/07/18 05:20:11;;;;;;;4.33;3.93;;;;;;;;;;7387624;19;20112;-69
2022/07/18 05:22:37;;;;;;;5.03;3.50;;;;;;;;;;7383201;19;20156;-69
2022/07/18 05:25:06;;;;;;;5.23;3.90;;;;;;;;;;7386760;19;20580;-69
2022/07/18 05:27:32;;;;;;;6.83;3.80;;;;;;;;;;7384387;19;20105;-69
2022/07/18 05:29:58;;;;;;;4.53;3.13;;;;;;;;;;7384108;19;20128;-69
2022/07/18 05:32:25;;;;;;;4.90;3.47;;;;;;;;;;7385900;19;20125;-69
2022/07/18 05:34:50;;;;;;;3.90;3.50;;;;;;;;;;7388943;19;20585;-69
2022/07/18 05:37:15;;;;;;;4.93;3.70;;;;;;;;;;7388859;19;20101;-69
2022/07/18 17:41:41;;;;;;;3.63;2.20;;;;;;;;;;7380554;19;21354;-69
2022/07/18 17:44:08;;;;;;;15.98;3.05;;;;;;;;;;7380951;19;20132;-69
2022/07/18 17:46:33;;;;;;;3.47;2.00;;;;;;;;;;7382600;19;20156;-69
2022/07/18 17:48:59;;;;;;;2.30;1.90;;;;;;;;;;7382660;19;21573;-70
2022/07/18 17:51:25;;;;;;;3.30;2.10;;;;;;;;;;7387243;19;20540;-69
2022/07/18 17:53:50;;;;;;;2.38;1.88;;;;;;;;;;7391258;19;20125;-70
2022/07/18 17:56:16;;;;;;;2.17;1.80;;;;;;;;;;7368424;19;20207;-69
2022/07/18 17:58:43;;;;;;;4.30;2.17;;;;;;;;;;7390708;19;20125;-70
2022/07/18 18:01:14;;;;;;;2.35;2.13;;;;;;;;;;7383479;19;20152;-69
2022/07/18 18:03:40;;;;;;;2.85;1.88;;;;;;;;;;7379786;19;20140;-69
2022/07/18 18:06:05;;;;;;;2.15;1.75;;;;;;;;;;7378937;19;20141;-69
2022/07/18 18:08:32;;;;;;;1.88;1.77;;;;;;;;;;7389435;19;20129;-69
2022/07/18 18:10:57;;;;;;;2.50;2.30;;;;;;;;;;7384959;19;20243;-70
2022/07/18 18:13:23;;;;;;;2.30;2.10;;;;;;;;;;7381267;19;20173;-69
2022/07/18 18:15:48;;;;;;;2.45;1.75;;;;;;;;;;7381428;19;20483;-70
2022/07/18 18:18:13;;;;;;;5.38;2.35;;;;;;;;;;7370786;19;20145;-69
2022/07/18 18:20:39;;;;;;;2.15;1.80;;;;;;;;;;7381224;19;20129;-69
2022/07/18 18:23:04;;;;;;;3.35;2.22;;;;;;;;;;7388695;19;20140;-69
2022/07/18 18:25:30;;;;;;;2.38;1.90;;;;;;;;;;7382854;19;20125;-70
2022/07/18 18:27:55;;;;;;;4.22;2.00;;;;;;;;;;7386305;19;20125;-69
2022/07/18 18:30:20;;;;;;;3.05;1.67;;;;;;;;;;7384273;19;20189;-70
2022/07/18 18:32:45;;;;;;;3.30;2.00;;;;;;;;;;7378759;19;20148;-70
2022/07/18 18:35:11;;;;;;;3.22;2.00;;;;;;;;;;7380437;19;20152;-70
2022/07/18 18:37:37;;;;;;;5.47;2.20;;;;;;;;;;7367284;19;20583;-70
2022/07/18 18:40:04;;;;;;;2.35;2.15;;;;;;;;;;7383539;19;20574;-69
2022/07/18 18:42:30;;;;;;;2.38;2.17;;;;;;;;;;7380870;19;20153;-70
2022/07/18 18:44:57;;;;;;;4.50;2.10;;;;;;;;;;7383784;19;20138;-67
2022/07/18 18:47:23;;;;;;;2.90;2.00;;;;;;;;;;7370915;19;20117;-70
2022/07/18 18:49:48;;;;;;;6.15;2.00;;;;;;;;;;7379235;19;20132;-69
2022/07/18 18:52:14;;;;;;;2.15;1.92;;;;;;;;;;7382414;19;20168;-69
2022/07/18 18:54:40;;;;;;;4.18;2.15;;;;;;;;;;7374767;19;20117;-70
2022/07/18 18:57:05;;;;;;;2.35;1.98;;;;;;;;;;7384554;19;20132;-69
2022/07/18 18:59:31;;;;;;;1.85;1.67;;;;;;;;;;7374970;19;20133;-69
2022/07/18 19:01:56;;;;;;;3.70;2.22;;;;;;;;;;7374460;19;20145;-70
2022/07/18 19:04:21;;;;;;;3.88;2.38;;;;;;;;;;7372049;19;20129;-70
2022/07/18 19:06:47;;;;;;;5.07;2.20;;;;;;;;;;7380367;19;20132;-69
2022/07/18 19:09:12;;;;;;;3.45;2.20;;;;;;;;;;7386924;19;20136;-69
2022/07/18 19:11:38;;;;;;;2.25;2.00;;;;;;;;;;7387739;19;20163;-70
2022/07/18 19:14:03;;;;;;;4.28;2.40;;;;;;;;;;7370596;19;20148;-69
2022/07/18 19:16:28;;;;;;;4.65;2.00;;;;;;;;;;7372959;19;20137;-69
2022/07/18 19:18:55;;;;;;;3.08;2.10;;;;;;;;;;7386719;19;20595;-70
2022/07/18 19:21:21;;;;;;;3.53;2.28;;;;;;;;;;7377999;19;20169;-69
2022/07/18 19:23:47;;;;;;;2.28;2.08;;;;;;;;;;7381217;19;20121;-70
2022/07/18 19:26:12;;;;;;;3.55;2.55;;;;;;;;;;7381982;19;20141;-70
2022/07/18 19:28:37;;;;;;;3.47;2.42;;;;;;;;;;7386842;19;20717;-69
2022/07/18 19:31:03;;;;;;;2.53;2.33;;;;;;;;;;7381399;19;20170;-69
2022/07/18 19:33:29;;;;;;;3.90;2.28;;;;;;;;;;7389124;19;20212;-70
2022/07/18 19:35:55;;;;;;;4.60;2.30;;;;;;;;;;7382232;19;20155;-70
2022/07/18 19:38:20;;;;;;;2.38;1.92;;;;;;;;;;7389107;19;20121;-69
2022/07/18 19:40:46;;;;;;;2.22;1.90;;;;;;;;;;7383485;19;20606;-69
2022/07/18 19:43:12;;;;;;;2.55;2.35;;;;;;;;;;7380850;19;20132;-69
2022/07/18 19:45:38;;;;;;;4.00;2.33;;;;;;;;;;7383000;19;20149;-69
2022/07/18 19:48:04;;;;;;;2.92;2.47;;;;;;;;;;7380919;19;20145;-69
2022/07/18 19:50:29;;;;;;;2.78;2.33;;;;;;;;;;7384807;19;20145;-69
2022/07/18 19:52:55;;;;;;;21.73;3.97;;;;;;;;;;7377210;19;20121;-69
2022/07/18 19:55:21;;;;;;;2.90;2.60;;;;;;;;;;7389244;19;20116;-69
2022/07/18 19:57:47;;;;;;;3.35;2.50;;;;;;;;;;7389129;19;20125;-69
2022/07/18 20:00:13;;;;;;;3.03;2.53;;;;;;;;;;7388932;19;20113;-69
2022/07/18 20:02:39;;;;;;;3.55;2.20;;;;;;;;;;7381887;19;20157;-69
2022/07/18 20:05:05;;;;;;;4.18;2.53;;;;;;;;;;7383603;19;20459;-69
2022/07/18 20:07:30;;;;;;;5.15;2.60;;;;;;;;;;7387274;19;20129;-70
2022/07/18 20:09:56;;;;;;;5.00;3.22;;;;;;;;;;7389795;19;20124;-70
2022/07/18 20:12:21;;;;;;;2.80;2.50;;;;;;;;;;7389099;19;20162;-69
2022/07/18 20:14:46;;;;;;;2.80;2.50;;;;;;;;;;7386305;19;20144;-69
2022/07/18 20:17:12;;;;;;;7.22;2.92;;;;;;;;;;7381053;19;20152;-69
2022/07/18 20:19:37;;;;;;;3.95;2.42;;;;;;;;;;7386780;19;20571;-69
2022/07/18 20:22:02;;;;;;;4.13;2.63;;;;;;;;;;7386977;19;20618;-70
2022/07/18 20:24:28;;;;;;;3.20;2.50;;;;;;;;;;7387911;19;20125;-69
2022/07/18 20:26:54;;;;;;;3.42;2.72;;;;;;;;;;7388322;19;20125;-69
2022/07/18 20:29:19;;;;;;;5.25;2.40;;;;;;;;;;7387785;19;20125;-69
2022/07/18 20:31:44;;;;;;;4.13;2.65;;;;;;;;;;7386982;19;20603;-69
2022/07/18 20:34:10;;;;;;;6.30;2.88;;;;;;;;;;7386801;19;20132;-69
2022/07/18 20:36:35;;;;;;;3.42;2.92;;;;;;;;;;7382743;19;20176;-69
2022/07/18 20:39:01;;;;;;;5.18;3.17;;;;;;;;;;7389266;19;20227;-69
2022/07/18 20:41:27;;;;;;;3.28;2.97;;;;;;;;;;7388678;19;20144;-72
2022/07/18 20:43:56;;;;;;;3.28;2.90;;;;;;;;;;7386383;19;20125;-69
2022/07/18 20:46:22;;;;;;;3.97;3.10;;;;;;;;;;7386743;19;20784;-69
2022/07/18 20:48:47;;;;;;;5.50;3.20;;;;;;;;;;7385578;19;20133;-69
2022/07/18 20:51:13;;;;;;;3.35;2.95;;;;;;;;;;7379140;19;20645;-69
2022/07/18 20:53:38;;;;;;;6.82;3.45;;;;;;;;;;7386286;19;20133;-69
2022/07/18 20:56:05;;;;;;;4.55;3.13;;;;;;;;;;7385087;19;20132;-69
2022/07/18 20:58:31;;;;;;;3.50;3.20;;;;;;;;;;7380416;19;20148;-69
2022/07/18 21:00:56;;;;;;;4.30;3.10;;;;;;;;;;7379369;19;20205;-69
2022/07/18 21:03:21;;;;;;;3.08;2.78;;;;;;;;;;7383661;19;20137;-69
2022/07/18 21:05:47;;;;;;;4.18;3.25;;;;;;;;;;7385527;19;20517;-69
2022/07/18 21:08:12;;;;;;;3.13;2.75;;;;;;;;;;7382948;19;20626;-69
2022/07/18 21:10:37;;;;;;;4.22;3.10;;;;;;;;;;7384790;19;20125;-69
2022/07/18 21:13:03;;;;;;;4.22;3.45;;;;;;;;;;7379235;19;20117;-69
2022/07/18 21:15:28;;;;;;;4.07;3.45;;;;;;;;;;7382377;19;20196;-69
2022/07/18 21:17:53;;;;;;;4.32;3.30;;;;;;;;;;7382562;19;20140;-69
2022/07/18 21:20:21;;;;;;;3.67;3.38;;;;;;;;;;7374173;19;20587;-69
2022/07/18 21:22:47;;;;;;;4.30;3.33;;;;;;;;;;7381404;19;20148;-69
2022/07/18 21:25:13;;;;;;;3.90;3.30;;;;;;;;;;7387048;19;20156;-69
2022/07/18 21:27:39;;;;;;;4.15;2.97;;;;;;;;;;7377732;19;20519;-69
2022/07/18 21:30:05;;;;;;;3.50;3.17;;;;;;;;;;7380698;19;20121;-69
2022/07/18 21:32:31;;;;;;;4.60;3.10;;;;;;;;;;7379924;19;20169;-69
2022/07/18 21:34:56;;;;;;;3.47;3.17;;;;;;;;;;7377185;19;20120;-69
2022/07/18 21:37:21;;;;;;;3.95;2.95;;;;;;;;;;7379598;19;20153;-69
2022/07/18 21:39:46;;;;;;;4.15;3.00;;;;;;;;;;7380029;19;20129;-69
2022/07/18 21:42:12;;;;;;;5.05;3.00;;;;;;;;;;7377423;19;20145;-69
2022/07/18 21:44:38;;;;;;;5.90;3.50;;;;;;;;;;7382165;19;20140;-69
2022/07/18 21:47:03;;;;;;;3.75;3.40;;;;;;;;;;7386123;19;20595;-68
2022/07/18 21:49:29;;;;;;;5.20;2.85;;;;;;;;;;7369500;19;20133;-69
2022/07/18 21:51:55;;;;;;;3.90;3.60;;;;;;;;;;7368611;19;20154;-69
2022/07/18 21:54:20;;;;;;;4.88;3.60;;;;;;;;;;7382981;19;20585;-69
2022/07/18 21:56:46;;;;;;;4.03;3.10;;;;;;;;;;7380568;19;20498;-70
2022/07/18 21:59:12;;;;;;;4.38;3.53;;;;;;;;;;7385685;19;20121;-69
2022/07/18 22:01:37;;;;;;;3.22;2.92;;;;;;;;;;7381364;19;20177;-68
2022/07/18 22:04:03;;;;;;;4.30;3.35;;;;;;;;;;7385888;19;20122;-68
2022/07/18 22:06:28;;;;;;;7.47;3.35;;;;;;;;;;7375804;19;20133;-70
2022/07/18 22:08:53;;;;;;;4.68;3.35;;;;;;;;;;7388375;19;20137;-68
2022/07/18 22:11:20;;;;;;;4.68;3.55;;;;;;;;;;7374260;19;20152;-69
2022/07/18 22:13:45;;;;;;;3.25;2.90;;;;;;;;;;7383758;19;20136;-69
2022/07/18 22:16:10;;;;;;;4.65;3.80;;;;;;;;;;7385685;19;20122;-69
2022/07/18 22:18:36;;;;;;;5.05;3.20;;;;;;;;;;7385602;19;20626;-69
2022/07/18 22:21:01;;;;;;;5.43;3.58;;;;;;;;;;7375961;19;20145;-68
2022/07/18 22:23:27;;;;;;;6.32;3.42;;;;;;;;;;7373687;19;20457;-70
2022/07/18 22:25:52;;;;;;;3.70;3.40;;;;;;;;;;7383935;19;20598;-68
2022/07/18 22:28:17;;;;;;;5.18;3.88;;;;;;;;;;7384491;19;20130;-68
2022/07/18 22:30:42;;;;;;;4.60;3.60;;;;;;;;;;7386498;19;20584;-69
2022/07/18 22:33:08;;;;;;;4.90;3.60;;;;;;;;;;7385685;19;20151;-69
2022/07/18 22:35:33;;;;;;;3.83;3.47;;;;;;;;;;7386768;19;20129;-68
2022/07/18 22:37:59;;;;;;;4.88;3.50;;;;;;;;;;7390001;19;20229;-68
2022/07/18 22:40:24;;;;;;;7.60;4.43;;;;;;;;;;7392665;19;20578;-69
2022/07/18 22:42:49;;;;;;;5.68;3.58;;;;;;;;;;7383920;19;20617;-69
2022/07/18 22:45:15;;;;;;;5.63;3.72;;;;;;;;;;7385432;19;20588;-68
2022/07/18 22:47:41;;;;;;;5.57;3.83;;;;;;;;;;7379854;19;20141;-68
2022/07/18 22:50:07;;;;;;;4.38;3.58;;;;;;;;;;7381745;19;20484;-67
2022/07/18 22:52:32;;;;;;;5.72;3.75;;;;;;;;;;7369621;19;20149;-67
2022/07/18 22:54:58;;;;;;;3.97;3.45;;;;;;;;;;7378421;19;20129;-69
2022/07/18 22:57:23;;;;;;;3.97;3.58;;;;;;;;;;7379022;19;20697;-68
2022/07/18 22:59:48;;;;;;;5.88;3.45;;;;;;;;;;7384102;19;20158;-67
2022/07/18 23:02:14;;;;;;;3.88;3.50;;;;;;;;;;7373990;19;20155;-67
2022/07/18 23:04:39;;;;;;;4.15;3.05;;;;;;;;;;7374940;19;20167;-68
2022/07/18 23:07:04;;;;;;;4.60;3.70;;;;;;;;;;7374340;19;20123;-67
2022/07/18 23:09:30;;;;;;;4.55;3.10;;;;;;;;;;7375733;19;20155;-67
2022/07/18 23:11:55;;;;;;;4.40;3.28;;;;;;;;;;7376958;19;20152;-67
2022/07/18 23:14:20;;;;;;;4.95;3.60;;;;;;;;;;7373917;19;20121;-69
2022/07/18 23:16:46;;;;;;;3.63;3.33;;;;;;;;;;7386920;19;20137;-67
2022/07/18 23:19:11;;;;;;;5.18;3.30;;;;;;;;;;7384165;19;20133;-67
2022/07/18 23:21:36;;;;;;;4.80;3.55;;;;;;;;;;7382916;19;20160;-68
2022/07/18 23:24:02;;;;;;;4.90;3.35;;;;;;;;;;7392133;19;20146;-68
2022/07/18 23:26:27;;;;;;;5.03;3.17;;;;;;;;;;7392840;19;20128;-67
2022/07/18 23:28:52;;;;;;;3.35;2.92;;;;;;;;;;7390876;19;20196;-67
2022/07/18 23:31:18;;;;;;;3.90;3.53;;;;;;;;;;7391947;19;20149;-68
2022/07/18 23:33:43;;;;;;;4.00;3.47;;;;;;;;;;7391923;19;20160;-68
2022/07/18 23:36:09;;;;;;;4.30;3.65;;;;;;;;;;7388088;19;20125;-67
2022/07/18 23:38:35;;;;;;;4.20;3.60;;;;;;;;;;7389002;19;20121;-67
2022/07/18 23:41:00;;;;;;;3.65;3.30;;;;;;;;;;7382926;19;20570;-67
2022/07/18 23:43:25;;;;;;;3.65;3.22;;;;;;;;;;7390939;19;20465;-69
2022/07/18 23:45:51;;;;;;;4.93;3.15;;;;;;;;;;7392153;19;20993;-68
2022/07/18 23:48:16;;;;;;;3.78;3.20;;;;;;;;;;7391792;19;20113;-68
2022/07/18 23:50:41;;;;;;;5.53;3.38;;;;;;;;;;7384465;19;20153;-67
2022/07/18 23:53:07;;;;;;;3.97;3.28;;;;;;;;;;7388486;19;20117;-69
2022/07/18 23:55:32;;;;;;;3.75;3.45;;;;;;;;;;7380269;19;20125;-68
2022/07/18 23:57:57;;;;;;;4.13;3.53;;;;;;;;;;7379966;19;20482;-67
